KSAA/SAA METAR and TAF weather

Enter ICAO airport designator
Station Type Date Time Source
KSAA METAR 2020/02/19 11:15 UTC NOAA

KSAA 191115Z AUTO 00000KT 10SM CLR M18/M21 A3012 RMK AO2


Station Type Date Time Source
KSAA Decoded METAR 2020/02/19 11:15 UTC NOAA

Station name not available
Feb 19, 2020 - 06:15 AM EST / 2020.02.19 1115 UTC
Wind: Calm:0
Visibility: 10 mile(s):0
Sky conditions: clear
Temperature: 0 F (-18 C)
Dew Point: -5 F (-21 C)
Relative Humidity: 77%
Pressure (altimeter): 30.12 in. Hg (1019 hPa)
ob: KSAA 191115Z AUTO 00000KT 10SM CLR M18/M21 A3012 RMK AO2
cycle: 11

Station Type Date Time Source
KSAA TAF UTC NOAA

Error!

Example: see airport list